Time;durP1;ratioP1;P1;durP2;ratioP2;P2;SDS_P1;SDS_P2;PMS_P1;PMS_P2;Temp;Humidity;BMP_temperature;BMP_pressure;BME280_temperature;BME280_humidity;BME280_pressure;Samples;Min_cycle;Max_cycle;Signal;HPM_P1;HPM_P2
2022/08/26 07:27:28;;;;;;;10.05;1.80;;;;;;;;;;5121068;27;20351;-68
2022/08/26 07:29:55;;;;;;;23.55;1.95;;;;;;;;;;5108160;27;20457;-67
2022/08/26 07:32:21;;;;;;;5.82;1.13;;;;;;;;;;5108815;27;20056;-70
2022/08/26 07:34:48;;;;;;;5.75;1.00;;;;;;;;;;5108139;27;20114;-67
2022/08/26 07:37:15;;;;;;;4.05;1.10;;;;;;;;;;5108647;28;20055;-69
2022/08/26 07:39:43;;;;;;;3.78;1.08;;;;;;;;;;5107387;27;20531;-66
2022/08/26 07:42:12;;;;;;;2.60;0.90;;;;;;;;;;5107299;28;20060;-67
2022/08/26 07:44:39;;;;;;;3.78;1.10;;;;;;;;;;5097072;27;20419;-65
2022/08/26 07:47:08;;;;;;;5.63;1.40;;;;;;;;;;5106900;27;20067;-67
2022/08/26 07:49:49;;;;;;;5.20;0.98;;;;;;;;;;5108649;27;20059;-65
2022/08/26 07:52:18;;;;;;;3.88;1.05;;;;;;;;;;5107766;27;20138;-66
2022/08/26 07:54:49;;;;;;;5.18;1.00;;;;;;;;;;5107017;27;20056;-64
2022/08/26 07:57:16;;;;;;;6.30;1.05;;;;;;;;;;5108613;27;20044;-67
2022/08/26 07:59:44;;;;;;;3.30;1.25;;;;;;;;;;5124140;27;20052;-67
2022/08/26 08:02:11;;;;;;;3.10;1.20;;;;;;;;;;5107969;27;20490;-69
2022/08/26 08:04:37;;;;;;;3.03;1.15;;;;;;;;;;5107610;27;20144;-67
2022/08/26 08:07:04;;;;;;;6.13;0.90;;;;;;;;;;5106644;27;20048;-66
2022/08/26 08:09:32;;;;;;;5.07;1.52;;;;;;;;;;5107959;27;20431;-65
2022/08/26 08:11:59;;;;;;;3.72;1.00;;;;;;;;;;5108046;28;20087;-66
2022/08/26 08:14:26;;;;;;;4.38;1.40;;;;;;;;;;5105899;27;20529;-66
2022/08/26 08:16:53;;;;;;;4.43;0.90;;;;;;;;;;5107875;27;20535;-66
2022/08/26 08:19:20;;;;;;;5.15;1.10;;;;;;;;;;5107813;27;20059;-66
2022/08/26 08:21:47;;;;;;;4.60;0.70;;;;;;;;;;5106678;28;20633;-65
2022/08/26 08:24:13;;;;;;;6.90;1.27;;;;;;;;;;5105980;28;20091;-66
2022/08/26 08:26:40;;;;;;;4.32;0.90;;;;;;;;;;5087575;28;20513;-65
2022/08/26 08:29:07;;;;;;;4.50;0.77;;;;;;;;;;5094624;28;20048;-65
2022/08/26 08:31:34;;;;;;;3.38;0.82;;;;;;;;;;5107927;27;20078;-65
2022/08/26 08:34:21;;;;;;;4.10;1.05;;;;;;;;;;5107515;28;20063;-64
2022/08/26 08:36:47;;;;;;;5.10;1.58;;;;;;;;;;5085748;28;20531;-65
2022/08/26 08:39:14;;;;;;;4.97;1.63;;;;;;;;;;5072584;28;20060;-64
2022/08/26 08:41:49;;;;;;;2.13;0.95;;;;;;;;;;5085146;28;20062;-65
2022/08/26 08:44:20;;;;;;;3.80;1.13;;;;;;;;;;5092944;28;20432;-65
2022/08/26 08:46:50;;;;;;;6.53;0.95;;;;;;;;;;5093779;28;20056;-67
2022/08/26 08:49:17;;;;;;;4.18;0.85;;;;;;;;;;5093218;28;20057;-65
2022/08/26 08:52:05;;;;;;;5.43;0.85;;;;;;;;;;5087681;28;20049;-65
2022/08/26 08:54:32;;;;;;;5.25;0.80;;;;;;;;;;5073721;28;20056;-65
2022/08/26 08:57:07;;;;;;;2.85;0.90;;;;;;;;;;5073506;28;20048;-65
2022/08/26 08:59:34;;;;;;;5.75;1.00;;;;;;;;;;5073860;28;20053;-67
2022/08/26 09:02:09;;;;;;;6.47;1.23;;;;;;;;;;5089231;28;20129;-67
2022/08/26 09:04:37;;;;;;;4.75;1.08;;;;;;;;;;5087396;28;20056;-67
2022/08/26 09:07:05;;;;;;;4.55;0.82;;;;;;;;;;5079306;28;20083;-66
2022/08/26 09:09:37;;;;;;;4.38;1.45;;;;;;;;;;5082775;28;20155;-65
2022/08/26 09:12:07;;;;;;;1.70;0.90;;;;;;;;;;5083891;28;20092;-65
2022/08/26 09:14:34;;;;;;;3.50;0.85;;;;;;;;;;5086422;28;20056;-64
2022/08/26 09:17:09;;;;;;;3.10;0.93;;;;;;;;;;5093756;28;20061;-66
2022/08/26 09:19:39;;;;;;;6.13;1.13;;;;;;;;;;5094058;28;20049;-65
2022/08/26 09:22:06;;;;;;;3.15;0.70;;;;;;;;;;5092049;28;20122;-66
2022/08/26 09:24:36;;;;;;;6.20;0.90;;;;;;;;;;5090936;28;20091;-65
2022/08/26 09:27:33;;;;;;;4.35;0.77;;;;;;;;;;5072660;28;20072;-65
2022/08/26 09:30:03;;;;;;;4.65;1.20;;;;;;;;;;5088807;28;20187;-65
2022/08/26 09:32:30;;;;;;;2.42;0.85;;;;;;;;;;5088554;28;20053;-64
2022/08/26 09:34:59;;;;;;;2.20;0.93;;;;;;;;;;5092619;28;20095;-65
2022/08/26 09:37:34;;;;;;;5.25;0.85;;;;;;;;;;5093422;28;20055;-64
2022/08/26 09:40:19;;;;;;;1.48;0.73;;;;;;;;;;5093554;28;20144;-66
2022/08/26 09:42:46;;;;;;;3.03;0.73;;;;;;;;;;5073366;28;20057;-65
2022/08/26 09:45:14;;;;;;;2.05;0.93;;;;;;;;;;5074621;28;20483;-65
2022/08/26 09:47:45;;;;;;;4.97;1.05;;;;;;;;;;5089081;28;20087;-65
2022/08/26 09:50:25;;;;;;;4.75;1.42;;;;;;;;;;5088784;28;20053;-65
2022/08/26 09:53:13;;;;;;;4.90;0.90;;;;;;;;;;5085031;28;20049;-65
2022/08/26 09:55:41;;;;;;;7.88;1.10;;;;;;;;;;5079534;28;20055;-65
2022/08/26 09:58:12;;;;;;;3.95;0.95;;;;;;;;;;5081931;28;20577;-65
2022/08/26 10:00:40;;;;;;;3.65;1.10;;;;;;;;;;5102911;28;20052;-65
2022/08/26 10:03:13;;;;;;;4.28;1.15;;;;;;;;;;5092660;28;20061;-64
2022/08/26 10:06:05;;;;;;;4.25;0.90;;;;;;;;;;5091720;28;20141;-64
2022/08/26 10:08:36;;;;;;;7.40;0.83;;;;;;;;;;5092168;28;20057;-64
2022/08/26 10:11:05;;;;;;;2.88;0.88;;;;;;;;;;5092643;28;20279;-65
2022/08/26 10:13:34;;;;;;;4.35;1.33;;;;;;;;;;5076172;28;20051;-66
2022/08/26 10:16:04;;;;;;;7.75;1.40;;;;;;;;;;5081791;28;20052;-65
2022/08/26 10:18:39;;;;;;;4.07;0.98;;;;;;;;;;5100635;28;20049;-64
2022/08/26 10:21:15;;;;;;;1.75;0.73;;;;;;;;;;5108447;28;20144;-64
2022/08/26 10:23:46;;;;;;;8.20;0.80;;;;;;;;;;5088980;28;20475;-67
2022/08/26 10:26:16;;;;;;;3.05;0.80;;;;;;;;;;5092165;28;20483;-66
2022/08/26 10:28:53;;;;;;;3.05;0.57;;;;;;;;;;5092110;28;20056;-67
2022/08/26 10:31:26;;;;;;;3.60;0.63;;;;;;;;;;5078762;28;20058;-66
2022/08/26 10:33:54;;;;;;;2.00;0.65;;;;;;;;;;5092606;28;20052;-66
2022/08/26 10:39:36;;;;;;;2.92;0.60;;;;;;;;;;5072106;28;20049;-66
2022/08/26 10:42:06;;;;;;;4.38;1.25;;;;;;;;;;5072413;28;20493;-68
2022/08/26 10:44:37;;;;;;;3.67;1.73;;;;;;;;;;5083199;28;20072;-67
2022/08/26 10:47:17;;;;;;;3.75;0.77;;;;;;;;;;5078777;28;20061;-67
2022/08/26 10:49:45;;;;;;;3.85;1.13;;;;;;;;;;5071960;28;20055;-67
2022/08/26 10:52:14;;;;;;;3.88;0.93;;;;;;;;;;5079271;28;20518;-66
2022/08/26 10:54:42;;;;;;;6.82;1.55;;;;;;;;;;5077158;28;20103;-69
2022/08/26 10:57:29;;;;;;;7.38;1.70;;;;;;;;;;5071696;28;20056;-68
2022/08/26 11:01:40;;;;;;;5.22;1.15;;;;;;;;;;5081696;28;20057;-70
2022/08/26 11:03:19;;;;;;;8.93;1.10;;;;;;;;;;5090194;28;20125;-69
2022/08/26 11:06:07;;;;;;;4.63;1.33;;;;;;;;;;5082515;28;20560;-69
2022/08/26 11:08:34;;;;;;;3.25;0.70;;;;;;;;;;5091522;28;20044;-68
2022/08/26 11:11:01;;;;;;;2.97;0.88;;;;;;;;;;5072893;28;20052;-69
2022/08/26 11:14:03;;;;;;;2.88;0.70;;;;;;;;;;5078608;28;20499;-70
2022/08/26 11:16:32;;;;;;;2.30;0.80;;;;;;;;;;5069297;28;20075;-69
2022/08/26 11:18:59;;;;;;;1.92;0.70;;;;;;;;;;5086607;28;20052;-69
2022/08/26 11:21:45;;;;;;;3.50;0.70;;;;;;;;;;5075024;28;20559;-69
2022/08/26 11:24:33;;;;;;;2.13;0.90;;;;;;;;;;5091339;28;20051;-69
2022/08/26 11:27:01;;;;;;;3.10;0.90;;;;;;;;;;5089069;28;20056;-68
2022/08/26 11:29:47;;;;;;;2.05;1.08;;;;;;;;;;5091062;28;20052;-68
2022/08/26 11:32:25;;;;;;;2.28;0.82;;;;;;;;;;5091693;28;20049;-67
2022/08/26 11:34:56;;;;;;;3.35;0.70;;;;;;;;;;5091873;28;20063;-67
2022/08/26 11:37:27;;;;;;;3.03;0.98;;;;;;;;;;5082250;28;20060;-69
2022/08/26 11:39:54;;;;;;;2.80;0.88;;;;;;;;;;5089007;28;20049;-70
2022/08/26 11:42:25;;;;;;;2.47;0.73;;;;;;;;;;5084976;28;20057;-68
2022/08/26 11:44:55;;;;;;;2.88;0.68;;;;;;;;;;5080464;28;20053;-67
2022/08/26 11:47:28;;;;;;;4.32;0.80;;;;;;;;;;5071016;28;20162;-67
2022/08/26 11:50:12;;;;;;;3.88;0.93;;;;;;;;;;5091222;28;20060;-67
2022/08/26 11:52:38;;;;;;;3.30;0.93;;;;;;;;;;5085621;28;20538;-69
2022/08/26 11:55:05;;;;;;;2.05;0.60;;;;;;;;;;5090339;28;20064;-68
2022/08/26 11:57:32;;;;;;;4.32;0.70;;;;;;;;;;5091484;28;20060;-69
2022/08/26 12:00:00;;;;;;;2.45;0.82;;;;;;;;;;5091084;28;21052;-69
2022/08/26 12:02:26;;;;;;;2.35;0.50;;;;;;;;;;5089510;28;20138;-70
2022/08/26 12:04:53;;;;;;;4.10;0.60;;;;;;;;;;5086009;28;20049;-69
2022/08/26 12:07:24;;;;;;;4.85;0.82;;;;;;;;;;5070633;28;20060;-68
2022/08/26 12:09:53;;;;;;;1.13;0.40;;;;;;;;;;5073777;28;20059;-69
2022/08/26 12:12:26;;;;;;;3.15;0.73;;;;;;;;;;5081799;28;20053;-69
2022/08/26 12:15:04;;;;;;;3.03;1.10;;;;;;;;;;5093085;28;20049;-68
2022/08/26 12:17:32;;;;;;;7.22;0.90;;;;;;;;;;5074666;28;20061;-70
2022/08/26 12:19:58;;;;;;;2.85;0.80;;;;;;;;;;5074296;28;20064;-70
2022/08/26 12:22:28;;;;;;;6.38;0.90;;;;;;;;;;5083375;28;20056;-68
2022/08/26 12:24:59;;;;;;;6.43;1.17;;;;;;;;;;5085453;28;20515;-70
2022/08/26 12:27:26;;;;;;;1.75;0.60;;;;;;;;;;5079503;28;20065;-67
2022/08/26 12:30:07;;;;;;;3.60;0.80;;;;;;;;;;5089596;28;20057;-69
2022/08/26 12:32:34;;;;;;;4.70;0.90;;;;;;;;;;5104950;28;20054;-69
2022/08/26 12:35:01;;;;;;;3.70;0.80;;;;;;;;;;5091656;28;20052;-71
2022/08/26 12:37:36;;;;;;;;;;;;;;;;;;5094082;28;20083;-70
2022/08/26 12:40:21;;;;;;;3.65;1.40;;;;;;;;;;5090949;28;45667;-70
2022/08/26 12:42:49;;;;;;;4.35;0.80;;;;;;;;;;5082047;28;20083;-69
2022/08/26 12:45:30;;;;;;;3.22;0.90;;;;;;;;;;5083763;28;20051;-70
2022/08/26 12:48:19;;;;;;;4.95;1.08;;;;;;;;;;5093794;28;20048;-74
2022/08/26 12:50:50;;;;;;;3.00;0.75;;;;;;;;;;5081362;28;20075;-68
2022/08/26 12:53:21;;;;;;;3.80;1.25;;;;;;;;;;5091384;28;20057;-68
2022/08/26 12:55:49;;;;;;;3.15;0.95;;;;;;;;;;5092759;28;20063;-68
2022/08/26 12:58:32;;;;;;;3.50;0.88;;;;;;;;;;5086368;28;20079;-68
2022/08/26 13:01:07;;;;;;;2.80;1.15;;;;;;;;;;5079795;28;20048;-66
2022/08/26 13:03:36;;;;;;;4.93;1.23;;;;;;;;;;5094174;28;20063;-65
2022/08/26 13:06:30;;;;;;;6.07;1.55;;;;;;;;;;5093798;28;20103;-68
2022/08/26 13:09:22;;;;;;;1.77;0.60;;;;;;;;;;5085828;28;20056;-67
2022/08/26 13:11:48;;;;;;;4.32;0.90;;;;;;;;;;5091923;28;20051;-69
2022/08/26 13:14:15;;;;;;;3.95;0.95;;;;;;;;;;5109748;28;20053;-69
2022/08/26 13:16:49;;;;;;;4.95;0.95;;;;;;;;;;5091188;28;20507;-69
2022/08/26 13:19:19;;;;;;;4.10;0.90;;;;;;;;;;5086773;28;20060;-68
2022/08/26 13:21:49;;;;;;;2.08;0.98;;;;;;;;;;5086539;28;20500;-69
2022/08/26 13:24:17;;;;;;;1.98;0.70;;;;;;;;;;5093164;28;20060;-68
2022/08/26 13:26:44;;;;;;;4.13;0.90;;;;;;;;;;5093851;28;20517;-67
2022/08/26 13:29:11;;;;;;;2.92;1.20;;;;;;;;;;5086844;28;20513;-68
2022/08/26 13:31:40;;;;;;;2.25;0.75;;;;;;;;;;5074267;28;20056;-68
2022/08/26 13:34:08;;;;;;;7.13;1.17;;;;;;;;;;5073073;28;20133;-66
2022/08/26 13:36:34;;;;;;;2.95;0.90;;;;;;;;;;5072114;28;20059;-69
2022/08/26 13:39:00;;;;;;;4.78;1.02;;;;;;;;;;5085094;28;20487;-68
2022/08/26 13:41:27;;;;;;;0.93;0.80;;;;;;;;;;5081686;28;20045;-68
2022/08/26 13:43:54;;;;;;;1.38;0.80;;;;;;;;;;5081292;28;20057;-68
2022/08/26 13:46:21;;;;;;;3.95;0.80;;;;;;;;;;5076876;28;20460;-68
2022/08/26 13:48:47;;;;;;;1.88;0.80;;;;;;;;;;5084775;28;20055;-68
2022/08/26 13:51:15;;;;;;;2.00;0.60;;;;;;;;;;5088505;28;20059;-69
2022/08/26 13:53:41;;;;;;;3.95;0.80;;;;;;;;;;5092819;28;20053;-72
2022/08/26 13:56:07;;;;;;;5.38;1.30;;;;;;;;;;5081139;28;20053;-70
2022/08/26 13:58:36;;;;;;;3.72;1.33;;;;;;;;;;5072841;28;20096;-68
2022/08/26 14:01:02;;;;;;;2.75;0.75;;;;;;;;;;5089191;28;20055;-68
2022/08/26 14:03:29;;;;;;;3.30;0.95;;;;;;;;;;5091928;28;20503;-67
2022/08/26 14:05:55;;;;;;;2.83;1.00;;;;;;;;;;5091680;28;20052;-67
2022/08/26 14:08:22;;;;;;;2.80;1.00;;;;;;;;;;5092315;28;20156;-68
2022/08/26 14:10:49;;;;;;;7.20;1.13;;;;;;;;;;5092700;28;20147;-68
2022/08/26 14:13:15;;;;;;;2.35;1.33;;;;;;;;;;5092875;28;20059;-68
2022/08/26 14:15:41;;;;;;;5.03;1.23;;;;;;;;;;5091852;28;20049;-69
2022/08/26 14:18:09;;;;;;;5.78;1.08;;;;;;;;;;5080247;28;20053;-69
2022/08/26 14:20:37;;;;;;;2.65;0.98;;;;;;;;;;5074155;28;20053;-68
2022/08/26 14:23:03;;;;;;;3.38;1.05;;;;;;;;;;5078337;28;20065;-69
2022/08/26 14:25:45;;;;;;;5.15;1.20;;;;;;;;;;5091876;28;20079;-67
2022/08/26 14:28:11;;;;;;;5.93;1.15;;;;;;;;;;5104099;27;20052;-70
2022/08/26 14:30:39;;;;;;;1.30;0.77;;;;;;;;;;5093092;28;20057;-69
2022/08/26 14:33:09;;;;;;;3.00;1.13;;;;;;;;;;5090937;28;20491;-69
2022/08/26 14:35:35;;;;;;;2.25;1.02;;;;;;;;;;5079890;28;20556;-69
2022/08/26 14:38:02;;;;;;;3.80;1.15;;;;;;;;;;5087980;28;20053;-68
2022/08/26 14:40:29;;;;;;;2.95;1.15;;;;;;;;;;5080391;28;20052;-69
2022/08/26 14:42:56;;;;;;;3.33;1.15;;;;;;;;;;5089908;28;20053;-69
2022/08/26 14:45:29;;;;;;;4.43;1.13;;;;;;;;;;5094069;28;20226;-71
2022/08/26 14:47:55;;;;;;;2.67;1.05;;;;;;;;;;5073193;28;20051;-69
2022/08/26 14:50:23;;;;;;;4.65;1.08;;;;;;;;;;5092270;28;20080;-71
2022/08/26 14:55:39;;;;;;;5.22;1.10;;;;;;;;;;5086370;28;20056;-69
2022/08/26 14:58:05;;;;;;;3.60;0.90;;;;;;;;;;5097989;28;20057;-70
2022/08/26 15:00:32;;;;;;;3.40;1.15;;;;;;;;;;5091381;28;20131;-69
2022/08/26 15:02:58;;;;;;;3.83;1.20;;;;;;;;;;5089573;28;20087;-68
2022/08/26 15:05:29;;;;;;;1.58;0.82;;;;;;;;;;5091300;28;20053;-69
2022/08/26 15:07:55;;;;;;;4.03;1.05;;;;;;;;;;5088516;28;20059;-69
2022/08/26 15:10:25;;;;;;;4.18;1.23;;;;;;;;;;5089402;28;20525;-68
2022/08/26 15:12:51;;;;;;;7.32;1.30;;;;;;;;;;5085575;28;20063;-68
2022/08/26 15:15:18;;;;;;;5.32;1.40;;;;;;;;;;5080690;28;20048;-69
2022/08/26 15:17:44;;;;;;;4.65;1.23;;;;;;;;;;5081528;28;20058;-69
2022/08/26 15:20:11;;;;;;;5.25;1.13;;;;;;;;;;5088222;28;20059;-69
2022/08/26 15:22:38;;;;;;;4.10;1.42;;;;;;;;;;5096236;28;20063;-69
2022/08/26 15:25:05;;;;;;;1.75;0.88;;;;;;;;;;5086774;28;20052;-68
2022/08/26 15:27:31;;;;;;;6.40;1.90;;;;;;;;;;5074329;28;20066;-69
2022/08/26 15:29:57;;;;;;;11.98;2.75;;;;;;;;;;5086691;28;20045;-68
2022/08/26 15:32:23;;;;;;;1.83;1.23;;;;;;;;;;5084426;28;20534;-68
2022/08/26 15:34:51;;;;;;;2.95;1.13;;;;;;;;;;5090273;28;20057;-68
2022/08/26 15:37:18;;;;;;;3.08;1.40;;;;;;;;;;5095227;28;20059;-68
2022/08/26 15:39:44;;;;;;;6.57;1.27;;;;;;;;;;5090303;28;20450;-69
2022/08/26 15:42:10;;;;;;;4.47;1.13;;;;;;;;;;5089675;28;20059;-68
2022/08/26 15:44:41;;;;;;;3.22;1.73;;;;;;;;;;5086404;28;20049;-69
2022/08/26 15:47:07;;;;;;;2.17;1.27;;;;;;;;;;5077985;28;20049;-70
2022/08/26 15:49:33;;;;;;;6.60;1.27;;;;;;;;;;5094271;28;20063;-69
2022/08/26 15:52:00;;;;;;;6.45;1.45;;;;;;;;;;5093561;28;20052;-70
2022/08/26 15:54:31;;;;;;;3.47;1.25;;;;;;;;;;5117188;27;20401;-69
2022/08/26 15:57:00;;;;;;;5.07;1.08;;;;;;;;;;5094834;28;20492;-69
2022/08/26 15:59:30;;;;;;;3.65;1.63;;;;;;;;;;5095488;28;20131;-67
2022/08/26 16:02:00;;;;;;;4.03;1.00;;;;;;;;;;5094421;28;20058;-68
2022/08/26 16:04:27;;;;;;;3.80;1.00;;;;;;;;;;5091864;28;20052;-68
2022/08/26 16:06:54;;;;;;;8.00;1.17;;;;;;;;;;5090994;28;20570;-69
2022/08/26 16:09:22;;;;;;;7.57;1.48;;;;;;;;;;5094096;28;20052;-70
2022/08/26 16:11:49;;;;;;;3.28;1.10;;;;;;;;;;5094056;28;20053;-67
2022/08/26 16:14:16;;;;;;;4.72;1.35;;;;;;;;;;5092765;28;20053;-68
2022/08/26 16:16:42;;;;;;;5.43;1.20;;;;;;;;;;5092765;28;20053;-67
2022/08/26 16:19:11;;;;;;;1.55;0.98;;;;;;;;;;5094107;28;20052;-67
2022/08/26 16:21:38;;;;;;;4.57;1.10;;;;;;;;;;5093484;28;20151;-67
2022/08/26 16:24:05;;;;;;;2.20;0.98;;;;;;;;;;5092880;28;20056;-67
2022/08/26 16:26:33;;;;;;;3.72;1.15;;;;;;;;;;5093621;28;20440;-67
2022/08/26 16:29:00;;;;;;;1.60;0.90;;;;;;;;;;5093488;28;20056;-68
2022/08/26 16:31:26;;;;;;;4.22;0.98;;;;;;;;;;5093581;28;20048;-68
2022/08/26 16:33:52;;;;;;;4.40;1.67;;;;;;;;;;5088607;28;20543;-67
2022/08/26 16:36:19;;;;;;;3.72;1.40;;;;;;;;;;5089538;28;20057;-68
2022/08/26 16:38:48;;;;;;;2.15;1.00;;;;;;;;;;5093346;28;20053;-68
2022/08/26 16:41:16;;;;;;;2.50;1.13;;;;;;;;;;5097222;28;20044;-67
2022/08/26 16:43:42;;;;;;;3.58;1.15;;;;;;;;;;5093355;28;20515;-67
2022/08/26 16:46:10;;;;;;;3.38;1.20;;;;;;;;;;5079505;28;20130;-67
2022/08/26 16:48:36;;;;;;;4.65;1.40;;;;;;;;;;5093859;28;20064;-67
2022/08/26 16:51:02;;;;;;;2.92;1.20;;;;;;;;;;5092414;28;20531;-68
2022/08/26 16:53:29;;;;;;;2.17;1.20;;;;;;;;;;5093376;28;20101;-68
2022/08/26 16:55:55;;;;;;;4.07;1.25;;;;;;;;;;5084863;28;20048;-68
2022/08/26 16:58:21;;;;;;;2.42;1.10;;;;;;;;;;5091466;28;20069;-67
2022/08/26 17:00:48;;;;;;;5.88;1.50;;;;;;;;;;5093144;28;20048;-68
2022/08/26 17:03:14;;;;;;;4.55;1.50;;;;;;;;;;5093238;28;20056;-68
2022/08/26 17:05:40;;;;;;;4.32;1.17;;;;;;;;;;5093707;28;20488;-68
2022/08/26 17:08:07;;;;;;;4.53;1.33;;;;;;;;;;5095667;28;20056;-68
2022/08/26 17:10:34;;;;;;;3.30;2.17;;;;;;;;;;5097017;28;20113;-67
2022/08/26 17:13:00;;;;;;;2.55;1.10;;;;;;;;;;5088487;28;20057;-66
2022/08/26 17:15:27;;;;;;;2.67;1.17;;;;;;;;;;5093239;28;21013;-68
2022/08/26 17:17:53;;;;;;;3.88;1.20;;;;;;;;;;5086996;28;20063;-67
2022/08/26 17:20:21;;;;;;;2.97;1.52;;;;;;;;;;5092513;28;20055;-68
2022/08/26 17:22:48;;;;;;;2.72;1.35;;;;;;;;;;5093993;28;20487;-67
2022/08/26 17:25:16;;;;;;;3.28;1.20;;;;;;;;;;5092114;27;20504;-68
2022/08/26 17:27:43;;;;;;;9.07;1.40;;;;;;;;;;5075894;28;20064;-67
2022/08/26 17:30:09;;;;;;;3.10;1.40;;;;;;;;;;5084234;28;20511;-68
2022/08/26 17:32:36;;;;;;;3.72;0.90;;;;;;;;;;5086030;28;20044;-67
2022/08/26 17:35:02;;;;;;;3.55;1.55;;;;;;;;;;5108229;28;20052;-69
2022/08/26 17:37:29;;;;;;;3.45;0.98;;;;;;;;;;5089078;28;20496;-68
2022/08/26 17:39:55;;;;;;;3.53;1.92;;;;;;;;;;5087763;28;20060;-67
2022/08/26 17:42:22;;;;;;;3.95;1.40;;;;;;;;;;5081440;28;20060;-68
2022/08/26 17:44:56;;;;;;;3.35;1.30;;;;;;;;;;5072318;28;20568;-68
2022/08/26 17:47:23;;;;;;;4.10;1.88;;;;;;;;;;5082167;28;20617;-67
2022/08/26 17:49:49;;;;;;;3.40;1.38;;;;;;;;;;5084980;28;20048;-69
2022/08/26 17:52:15;;;;;;;3.03;1.55;;;;;;;;;;5089781;28;20515;-68
2022/08/26 17:54:42;;;;;;;4.00;1.10;;;;;;;;;;5085643;28;20053;-68
2022/08/26 17:57:08;;;;;;;3.97;1.48;;;;;;;;;;5098297;28;20476;-67
2022/08/26 17:59:36;;;;;;;5.90;1.55;;;;;;;;;;5088550;28;20048;-69
2022/08/26 18:02:06;;;;;;;7.13;1.83;;;;;;;;;;5084490;28;20053;-68
2022/08/26 18:04:32;;;;;;;5.03;1.40;;;;;;;;;;5090172;28;20488;-68
2022/08/26 18:06:58;;;;;;;2.47;1.27;;;;;;;;;;5091925;28;20069;-68
2022/08/26 18:09:27;;;;;;;4.57;1.83;;;;;;;;;;5090911;27;20055;-68
2022/08/26 18:11:54;;;;;;;4.18;1.55;;;;;;;;;;5084127;28;20049;-68
2022/08/26 18:14:20;;;;;;;3.70;2.00;;;;;;;;;;5094243;28;20059;-68
2022/08/26 18:16:47;;;;;;;4.70;1.55;;;;;;;;;;5099323;28;20049;-68
2022/08/26 18:19:13;;;;;;;3.05;1.45;;;;;;;;;;5093778;28;20534;-68
2022/08/26 18:21:39;;;;;;;2.65;1.50;;;;;;;;;;5086462;28;20052;-68
2022/08/26 18:24:05;;;;;;;5.93;1.60;;;;;;;;;;5093295;28;20087;-68
2022/08/26 18:26:37;;;;;;;3.08;1.10;;;;;;;;;;5082830;28;20585;-68
2022/08/26 18:29:04;;;;;;;3.55;1.80;;;;;;;;;;5092968;28;20052;-68
2022/08/26 18:31:31;;;;;;;3.03;1.60;;;;;;;;;;5087489;28;20052;-67
2022/08/26 18:33:59;;;;;;;3.42;1.50;;;;;;;;;;5091763;28;20063;-68
2022/08/26 18:36:27;;;;;;;5.57;1.80;;;;;;;;;;5090943;28;20056;-70
2022/08/26 18:38:54;;;;;;;2.28;1.23;;;;;;;;;;5085637;28;20053;-69
2022/08/26 18:41:21;;;;;;;3.47;1.30;;;;;;;;;;5083885;27;20562;-68
2022/08/26 18:43:49;;;;;;;5.43;1.50;;;;;;;;;;5095115;27;20054;-68
2022/08/26 18:46:16;;;;;;;3.60;1.70;;;;;;;;;;5089295;28;20052;-68
2022/08/26 18:48:43;;;;;;;4.43;1.35;;;;;;;;;;5088308;28;20053;-68
2022/08/26 18:51:15;;;;;;;2.80;1.38;;;;;;;;;;5089899;28;20483;-68
2022/08/26 18:53:41;;;;;;;3.90;1.67;;;;;;;;;;5085585;28;20055;-68
2022/08/26 18:56:08;;;;;;;4.20;1.80;;;;;;;;;;5090772;28;20059;-68
2022/08/26 18:58:34;;;;;;;4.22;1.55;;;;;;;;;;5099771;28;20075;-68
2022/08/26 19:01:00;;;;;;;4.53;1.65;;;;;;;;;;5084025;28;20956;-68
2022/08/26 19:03:27;;;;;;;5.80;1.15;;;;;;;;;;5089767;28;20055;-69
2022/08/26 19:05:54;;;;;;;5.10;1.52;;;;;;;;;;5087715;28;20049;-68
2022/08/26 19:08:20;;;;;;;6.60;1.35;;;;;;;;;;5079355;28;20056;-68
2022/08/26 19:10:46;;;;;;;2.65;1.40;;;;;;;;;;5080704;28;20048;-68
2022/08/26 19:13:13;;;;;;;5.07;1.67;;;;;;;;;;5092375;28;20045;-69
2022/08/26 19:15:41;;;;;;;2.38;1.40;;;;;;;;;;5088585;28;21155;-68
2022/08/26 19:18:09;;;;;;;2.78;1.08;;;;;;;;;;5099888;27;20132;-67
2022/08/26 19:20:38;;;;;;;3.58;1.65;;;;;;;;;;5093479;28;20082;-68
2022/08/26 19:23:12;;;;;;;3.55;1.48;;;;;;;;;;5091132;28;20383;-67
2022/08/26 19:25:56;;;;;;;4.38;1.58;;;;;;;;;;5081334;28;20579;-68
2022/08/26 19:28:22;;;;;;;4.05;1.13;;;;;;;;;;5087148;28;20058;-68
2022/08/26 19:30:50;;;;;;;4.55;1.58;;;;;;;;;;5080391;28;20064;-70
2022/08/26 19:33:18;;;;;;;3.50;1.33;;;;;;;;;;5090996;28;20065;-68
2022/08/26 19:35:45;;;;;;;2.63;1.30;;;;;;;;;;5074942;28;20052;-68
2022/08/26 19:38:12;;;;;;;3.65;1.50;;;;;;;;;;5087158;28;20053;-68
2022/08/26 19:40:40;;;;;;;5.28;1.58;;;;;;;;;;5080042;28;20054;-68
2022/08/26 19:43:10;;;;;;;4.07;1.20;;;;;;;;;;5092669;28;20130;-68
2022/08/26 19:45:37;;;;;;;2.20;1.23;;;;;;;;;;5093067;27;20053;-68
2022/08/26 19:48:04;;;;;;;4.05;1.30;;;;;;;;;;5090545;28;20114;-68
2022/08/26 19:50:31;;;;;;;2.95;1.02;;;;;;;;;;5091450;28;20185;-69
2022/08/26 19:52:58;;;;;;;5.65;1.63;;;;;;;;;;5091608;28;20059;-68
2022/08/26 19:55:26;;;;;;;3.67;1.30;;;;;;;;;;5089568;28;20059;-69
2022/08/26 19:57:53;;;;;;;4.05;1.98;;;;;;;;;;5089544;28;20052;-68
2022/08/26 20:00:25;;;;;;;3.55;1.40;;;;;;;;;;5085489;28;20484;-68
2022/08/26 20:02:52;;;;;;;1.92;1.20;;;;;;;;;;5074826;28;20059;-69
2022/08/26 20:05:19;;;;;;;2.58;1.40;;;;;;;;;;5071207;28;20053;-69
2022/08/26 20:07:46;;;;;;;4.85;2.08;;;;;;;;;;5082813;28;20056;-68
2022/08/26 20:10:13;;;;;;;2.85;1.30;;;;;;;;;;5089629;28;20059;-68
2022/08/26 20:12:40;;;;;;;10.73;1.98;;;;;;;;;;5088506;28;20057;-68
2022/08/26 20:15:10;;;;;;;5.35;1.60;;;;;;;;;;5089562;28;20056;-67
2022/08/26 20:17:37;;;;;;;4.90;1.90;;;;;;;;;;5080812;28;20049;-68
2022/08/26 20:22:59;;;;;;;4.87;1.67;;;;;;;;;;5090793;28;20600;-68
2022/08/26 20:25:25;;;;;;;5.13;1.60;;;;;;;;;;5090350;28;20048;-67
2022/08/26 20:27:53;;;;;;;3.28;1.70;;;;;;;;;;5090479;28;20062;-69
2022/08/26 20:30:19;;;;;;;4.05;1.50;;;;;;;;;;5087962;28;20412;-68
2022/08/26 20:32:46;;;;;;;7.13;1.52;;;;;;;;;;5091094;28;20055;-68
2022/08/26 20:35:13;;;;;;;4.43;1.88;;;;;;;;;;5080346;28;20057;-68
2022/08/26 20:37:40;;;;;;;3.13;1.30;;;;;;;;;;5093558;28;20052;-67
2022/08/26 20:40:08;;;;;;;3.72;1.30;;;;;;;;;;5087927;28;20395;-67
2022/08/26 20:42:34;;;;;;;5.00;1.27;;;;;;;;;;5092657;27;20064;-67
2022/08/26 20:45:01;;;;;;;4.07;1.38;;;;;;;;;;5083393;28;20053;-68
2022/08/26 20:47:27;;;;;;;5.75;1.40;;;;;;;;;;5092553;28;20419;-68
2022/08/26 20:49:54;;;;;;;4.05;1.83;;;;;;;;;;5093399;28;20139;-68
2022/08/26 20:52:20;;;;;;;3.83;1.83;;;;;;;;;;5086833;28;20072;-68
2022/08/26 20:54:46;;;;;;;2.38;1.38;;;;;;;;;;5087027;28;20048;-68
2022/08/26 20:57:13;;;;;;;3.17;1.40;;;;;;;;;;5086054;28;20067;-68
2022/08/26 20:59:39;;;;;;;2.47;1.30;;;;;;;;;;5085305;28;20088;-68
2022/08/26 21:02:07;;;;;;;6.45;1.42;;;;;;;;;;5087242;28;20052;-68
2022/08/26 21:04:33;;;;;;;3.63;1.58;;;;;;;;;;5095953;28;20529;-68
2022/08/26 21:06:59;;;;;;;6.97;2.10;;;;;;;;;;5089011;28;20049;-68
2022/08/26 21:09:26;;;;;;;4.85;1.52;;;;;;;;;;5093219;28;20052;-68
2022/08/26 21:11:54;;;;;;;2.75;1.60;;;;;;;;;;5087244;28;20080;-68
2022/08/26 21:14:22;;;;;;;2.63;1.58;;;;;;;;;;5091925;28;20062;-68
2022/08/26 21:16:50;;;;;;;3.63;2.03;;;;;;;;;;5080688;28;20142;-68
2022/08/26 21:19:17;;;;;;;3.20;1.85;;;;;;;;;;5093324;28;20049;-68
2022/08/26 21:21:44;;;;;;;2.97;1.60;;;;;;;;;;5087067;28;20059;-68
2022/08/26 21:24:11;;;;;;;7.50;1.90;;;;;;;;;;5074736;28;20053;-68
2022/08/26 21:26:38;;;;;;;5.55;2.00;;;;;;;;;;5090004;28;20086;-68
2022/08/26 21:29:06;;;;;;;5.47;1.58;;;;;;;;;;5092650;28;20048;-68
2022/08/26 21:31:33;;;;;;;2.75;1.80;;;;;;;;;;5081241;28;20052;-68
2022/08/26 21:34:00;;;;;;;4.20;1.63;;;;;;;;;;5091871;28;20057;-68
2022/08/26 21:36:26;;;;;;;4.20;1.65;;;;;;;;;;5084530;28;20142;-68
2022/08/26 21:38:56;;;;;;;2.40;1.48;;;;;;;;;;5073897;28;20416;-67
2022/08/26 21:41:23;;;;;;;2.58;1.00;;;;;;;;;;5079272;28;20085;-68
2022/08/26 21:43:50;;;;;;;4.20;1.80;;;;;;;;;;5103185;28;20423;-68
2022/08/26 21:46:18;;;;;;;3.88;1.60;;;;;;;;;;5114437;28;20048;-69
2022/08/26 21:48:47;;;;;;;3.38;1.35;;;;;;;;;;5091208;28;20055;-68
2022/08/26 21:51:17;;;;;;;4.85;1.67;;;;;;;;;;5080598;28;20052;-68
2022/08/26 21:53:43;;;;;;;4.05;1.77;;;;;;;;;;5092359;28;20080;-68
2022/08/26 21:56:12;;;;;;;5.97;1.80;;;;;;;;;;5093068;28;20057;-67
2022/08/26 21:58:39;;;;;;;2.38;1.63;;;;;;;;;;5093348;28;20053;-68
2022/08/26 22:01:09;;;;;;;2.00;1.15;;;;;;;;;;5092927;28;20056;-68
2022/08/26 22:03:36;;;;;;;1.40;1.13;;;;;;;;;;5073336;28;20199;-68
2022/08/26 22:06:12;;;;;;;3.80;1.25;;;;;;;;;;5072492;28;20053;-68
2022/08/26 22:08:39;;;;;;;7.10;1.52;;;;;;;;;;5089396;28;20059;-68
2022/08/26 22:11:05;;;;;;;3.75;1.70;;;;;;;;;;5090714;28;20059;-68
2022/08/26 22:13:33;;;;;;;3.17;1.30;;;;;;;;;;5091777;28;20522;-69
2022/08/26 22:16:00;;;;;;;2.75;1.35;;;;;;;;;;5088852;28;20059;-68
2022/08/26 22:18:27;;;;;;;6.03;1.33;;;;;;;;;;5079884;28;20055;-68
2022/08/26 22:20:55;;;;;;;3.92;1.30;;;;;;;;;;5086299;28;20052;-69
2022/08/26 22:23:22;;;;;;;4.93;1.60;;;;;;;;;;5092781;28;20052;-68
2022/08/26 22:25:48;;;;;;;4.10;1.58;;;;;;;;;;5078305;28;20064;-70
2022/08/26 22:28:15;;;;;;;6.57;1.63;;;;;;;;;;5072767;28;20061;-68
2022/08/26 22:30:42;;;;;;;5.90;1.20;;;;;;;;;;5076788;28;20055;-69